イルクーツク の空港の天気 - METARとTAF

イルクーツク国際空港 ( UIII / IKT ) - ロシア イルクーツク
飛行場実況気象(Metar)
観測時間01/17 03:00 IRKT (01/16 19:00 UTC)
風向・風速東 3m/s
視程10km以上
天気現象
なし
気温-12℃
湿度78%
気圧1018hPa
METARUIII 161900Z 10003MPS CAVOK M12/M15 Q1018 R12/390045 NOSIG RMK QFE721/0962
過去の天気等 Google飛行場航空写真 Wunderground天気予報

過去48時間のMETAR

飛行場予報(TAF)
発表時間: 1/17 01:00 IRKT (1/16 17:00 UTC)
予報対象時間: 17日2時 IRKT ~ 18日2時 IRKT
風向・風速南東 3m/s
視程10km以上
なし
TAF UIII 161700Z 1618/1718 14003MPS CAVOK